.
WxDataArchive / Data Records for 2007-03-15
2007-03-14 March 2007 2007-03-16

Data Records for Thursday, 15 March 2007

Time	Temp	Chill	HIndex	Humid	Dewpt	 Wind 	HiWind	WindDir	Rain 	Barom 
-----	----	-----	------	-----	-----	------	------	-------	-----	----- 
00:00	44.3	44.3	44.3	91	41.8	1	6	22	0.02	29.937 
00:05	43.9	43.9	43.9	91	41.4	1	7	0	0.02	29.923 
00:10	43.5	43.5	43.5	91	41.0	2	4	45	0.01	29.923 
00:15	42.9	42.9	42.9	91	40.5	2	6	22	0.00	29.932 
00:20	42.6	42.6	42.6	91	40.2	2	6	22	0.00	29.937 
00:25	42.1	42.1	42.1	90	39.4	2	7	22	0.00	29.938 
00:30	41.6	41.6	41.6	90	38.9	2	6	22	0.01	29.941 
00:35	41.3	41.3	41.3	91	38.9	2	7	22	0.00	29.940 
00:40	41.2	41.2	41.2	91	38.8	1	5	22	0.00	29.947 
00:45	41.1	41.1	41.1	91	38.7	2	5	22	0.01	29.942 
00:50	40.8	40.8	40.8	91	38.4	2	7	22	0.01	29.939 
00:55	40.5	40.5	40.5	91	38.1	2	6	90	0.02	29.940 
01:00	40.2	40.2	40.2	91	37.8	2	5	22	0.00	29.948 
01:05	39.9	39.9	39.9	91	37.5	3	13	68	0.00	29.955 
01:10	39.8	39.8	39.8	91	37.4	2	12	22	0.00	29.956 
01:15	39.6	39.6	39.6	91	37.2	3	8	68	0.00	29.955 
01:20	39.6	39.6	39.6	91	37.2	1	7	90	0.00	29.955 
01:25	39.5	39.5	39.5	91	37.1	2	5	112	0.01	29.954 
01:30	39.2	39.2	39.2	91	36.8	1	9	90	0.00	29.967 
01:35	38.9	38.9	38.9	91	36.5	3	11	45	0.01	29.966 
01:40	38.6	38.6	38.6	90	35.9	3	9	68	0.00	29.971 
01:45	38.2	38.2	38.2	90	35.5	2	11	90	0.00	29.979 
01:50	37.8	37.8	37.8	90	35.1	2	6	45	0.01	29.986 
01:55	37.6	37.6	37.6	90	34.9	1	4	45	0.00	29.989 
02:00	37.5	34.4	37.5	90	34.8	4	9	45	0.00	29.988 
02:05	37.3	37.3	37.3	90	34.6	3	9	112	0.01	29.994 
02:10	37.0	37.0	37.0	90	34.3	2	9	45	0.01	30.004 
02:15	36.9	36.9	36.9	90	34.2	2	9	22	0.00	30.015 
02:20	36.9	36.9	36.9	90	34.2	2	7	68	0.01	30.012 
02:25	36.6	36.6	36.6	91	34.2	2	7	112	0.00	30.014 
02:30	36.0	36.0	36.0	90	33.4	2	6	45	0.00	30.018 
02:35	35.3	35.3	35.3	89	32.4	2	8	135	0.01	30.012 
02:40	34.7	34.7	34.7	90	32.1	2	7	22	0.00	30.022 
02:45	34.4	34.4	34.4	90	31.8	2	7	0	0.00	30.023 
02:50	34.1	34.1	34.1	90	31.5	2	9	112	0.00	30.023 
02:55	33.7	30.0	33.7	90	31.1	4	9	22	0.00	30.024 
03:00	33.4	33.4	33.4	90	30.8	3	11	45	0.00	30.024 
03:05	33.1	29.3	33.1	90	30.5	4	11	90	0.00	30.023 
03:10	32.9	28.1	32.9	89	30.0	5	12	45	0.00	30.024 
03:15	32.9	29.1	32.9	89	30.0	4	11	90	0.00	30.027 
03:20	32.9	32.9	32.9	90	30.3	3	7	90	0.00	30.023 
03:25	32.9	29.1	32.9	89	30.0	4	11	45	0.00	30.018 
03:30	32.9	32.9	32.9	89	30.0	3	10	90	0.00	30.026 
03:35	32.9	32.9	32.9	89	30.0	3	8	90	0.00	30.029 
03:40	32.9	32.9	32.9	89	30.0	2	8	22	0.00	30.035 
03:45	32.9	32.9	32.9	89	30.0	3	10	112	0.00	30.040 
03:50	32.9	32.9	32.9	89	30.0	2	7	45	0.00	30.040 
03:55	32.9	32.9	32.9	90	30.3	3	11	90	0.00	30.040 
04:00	32.9	32.9	32.9	90	30.3	2	6	68	0.00	30.048 
04:05	32.8	32.8	32.8	90	30.2	2	7	45	0.00	30.057 
04:10	32.8	32.8	32.8	90	30.2	3	9	45	0.00	30.057 
04:15	32.8	32.8	32.8	90	30.2	3	7	90	0.00	30.057 
04:20	32.8	32.8	32.8	90	30.2	2	6	45	0.00	30.058 
04:25	32.8	32.8	32.8	90	30.2	3	10	90	0.00	30.057 
04:30	32.8	32.8	32.8	90	30.2	2	7	45	0.00	30.049 
04:35	32.7	28.9	32.7	90	30.1	4	11	112	0.00	30.043 
04:40	32.7	32.7	32.7	90	30.1	3	7	90	0.00	30.041 
04:45	32.7	28.9	32.7	90	30.1	4	7	112	0.00	30.037 
04:50	32.7	32.7	32.7	91	30.4	3	10	112	0.00	30.032 
04:55	32.7	32.7	32.7	91	30.4	2	6	112	0.00	30.041 
05:00	32.7	32.7	32.7	91	30.4	3	11	112	0.00	30.039 
05:05	32.7	32.7	32.7	91	30.4	3	11	45	0.00	30.053 
05:10	32.8	32.8	32.8	89	29.9	3	11	112	0.00	30.048 
05:15	32.8	29.0	32.8	88	29.6	4	13	22	0.00	30.047 
05:20	32.9	29.1	32.9	88	29.7	4	12	112	0.00	30.045 
05:25	32.9	32.9	32.9	88	29.7	3	11	22	0.00	30.048 
05:30	32.9	32.9	32.9	88	29.7	3	9	112	0.00	30.054 
05:35	32.9	29.1	32.9	88	29.7	4	10	112	0.00	30.052 
05:40	32.9	29.1	32.9	88	29.7	4	13	112	0.00	30.050 
05:45	33.1	33.1	33.1	88	29.9	3	9	112	0.00	30.057 
05:50	33.1	28.4	33.1	88	29.9	5	10	112	0.00	30.063 
05:55	33.1	28.4	33.1	87	29.7	5	12	112	0.00	30.065 
06:00	33.1	33.1	33.1	87	29.7	3	10	90	0.00	30.075 
06:05	33.1	29.3	33.1	87	29.7	4	11	112	0.00	30.081 
06:10	33.1	29.3	33.1	87	29.7	4	9	112	0.00	30.083 
06:15	32.9	32.9	32.9	88	29.7	3	7	112	0.00	30.085 
06:20	32.9	32.9	32.9	88	29.7	3	9	112	0.00	30.089 
06:25	32.9	29.1	32.9	88	29.7	4	9	112	0.00	30.095 
06:30	32.9	32.9	32.9	88	29.7	3	8	90	0.00	30.097 
06:35	32.9	29.1	32.9	88	29.7	4	11	112	0.00	30.107 
06:40	33.1	33.1	33.1	88	29.9	3	11	90	0.00	30.111 
06:45	33.1	28.4	33.1	88	29.9	5	11	90	0.00	30.112 
06:50	33.1	33.1	33.1	88	29.9	3	7	112	0.00	30.112 
06:55	32.9	29.1	32.9	87	29.5	4	10	112	0.00	30.113 
07:00	32.9	29.1	32.9	86	29.2	4	9	112	0.00	30.118 
07:05	33.1	33.1	33.1	87	29.7	3	9	112	0.00	30.120 
07:10	33.1	29.3	33.1	87	29.7	4	9	112	0.00	30.128 
07:15	33.1	33.1	33.1	86	29.4	3	9	112	0.00	30.132 
07:20	33.1	33.1	33.1	86	29.4	3	7	112	0.00	30.133 
07:25	33.1	33.1	33.1	86	29.4	1	3	90	0.00	30.138 
07:30	33.1	33.1	33.1	86	29.4	2	6	90	0.00	30.137 
07:35	33.1	33.1	33.1	86	29.4	2	6	90	0.00	30.135 
07:40	33.1	33.1	33.1	85	29.1	3	7	90	0.00	30.133 
07:45	33.1	33.1	33.1	85	29.1	2	4	90	0.00	30.135 
07:50	33.1	33.1	33.1	85	29.1	2	5	112	0.00	30.132 
07:55	33.2	33.2	33.2	85	29.2	3	11	112	0.00	30.132 
08:00	33.2	33.2	33.2	85	29.2	2	6	90	0.00	30.132 
08:05	33.2	33.2	33.2	85	29.2	2	5	112	0.00	30.137 
08:10	33.2	33.2	33.2	85	29.2	2	5	22	0.00	30.137 
08:15	33.2	33.2	33.2	85	29.2	3	10	112	0.00	30.135 
08:20	33.2	33.2	33.2	85	29.2	2	5	22	0.00	30.135 
08:25	33.2	33.2	33.2	84	28.9	3	9	112	0.00	30.135 
08:30	33.2	33.2	33.2	84	28.9	2	6	112	0.00	30.137 
08:35	33.4	33.4	33.4	84	29.1	2	7	112	0.00	30.141 
08:40	33.5	33.5	33.5	84	29.2	2	9	112	0.00	30.136 
08:45	33.5	33.5	33.5	83	28.9	2	5	45	0.00	30.134 
08:50	33.7	33.7	33.7	84	29.4	2	6	112	0.01	30.132 
08:55	33.7	33.7	33.7	83	29.1	2	6	90	0.00	30.139 
09:00	33.7	33.7	33.7	83	29.1	2	7	112	0.00	30.146 
09:05	33.8	33.8	33.8	83	29.2	2	7	90	0.00	30.152 
09:10	34.0	34.0	34.0	82	29.1	2	4	112	0.00	30.152 
09:15	34.1	34.1	34.1	82	29.2	2	6	90	0.00	30.149 
09:20	34.1	34.1	34.1	82	29.2	2	7	68	0.00	30.146 
09:25	34.3	34.3	34.3	81	29.1	3	9	90	0.00	30.144 
09:30	34.3	34.3	34.3	81	29.1	2	5	45	0.00	30.149 
09:35	34.6	34.6	34.6	83	30.0	2	5	68	0.00	30.150 
09:40	34.6	34.6	34.6	81	29.4	2	4	22	0.00	30.152 
09:45	34.7	34.7	34.7	81	29.5	2	7	45	0.01	30.157 
09:50	34.9	34.9	34.9	81	29.7	2	6	112	0.00	30.164 
09:55	35.0	31.5	35.0	79	29.2	4	11	90	0.00	30.168 
10:00	35.2	35.2	35.2	77	28.7	3	7	90	0.00	30.167 
10:05	35.3	35.3	35.3	77	28.8	2	9	90	0.00	30.169 
10:10	35.5	35.5	35.5	77	29.0	3	9	112	0.00	30.172 
10:15	35.6	35.6	35.6	77	29.1	2	6	112	0.00	30.175 
10:20	35.8	35.8	35.8	76	29.0	3	12	90	0.00	30.182 
10:25	35.6	31.3	35.6	76	28.8	5	12	112	0.00	30.183 
10:30	35.8	32.5	35.8	76	29.0	4	10	112	0.01	30.186 
10:35	36.0	32.7	36.0	76	29.2	4	9	112	0.00	30.187 
10:40	36.3	32.1	36.3	76	29.5	5	10	112	0.00	30.187 
10:45	36.8	33.6	36.8	75	29.6	4	10	112	0.00	30.186 
10:50	36.8	31.3	36.8	73	29.0	7	14	112	0.00	30.186 
10:55	36.6	31.7	36.6	72	28.4	6	14	112	0.00	30.186 
11:00	36.6	31.0	36.6	73	28.8	7	14	112	0.01	30.188 
11:05	36.9	32.8	36.9	72	28.7	5	13	112	0.00	30.196 
11:10	37.3	34.2	37.3	72	29.1	4	11	112	0.00	30.203 
11:15	37.8	37.8	37.8	73	29.9	3	9	112	0.00	30.199 
11:20	38.0	34.1	38.0	71	29.4	5	11	112	0.01	30.200 
11:25	37.8	33.1	37.8	68	28.2	6	15	112	0.00	30.202 
11:30	37.9	33.3	37.9	69	28.7	6	12	112	0.00	30.202 
11:35	37.9	32.6	37.9	65	27.2	7	12	112	0.00	30.202 
11:40	37.9	33.3	37.9	68	28.3	6	14	112	0.00	30.203 
11:45	38.3	35.4	38.3	69	29.0	4	13	112	0.01	30.203 
11:50	38.5	34.0	38.5	67	28.5	6	11	112	0.00	30.202 
11:55	38.6	34.8	38.6	68	29.0	5	11	112	0.00	30.201 
12:00	38.9	36.0	38.9	64	27.8	4	11	90	0.00	30.202 
12:05	38.8	34.3	38.8	65	28.1	6	13	112	0.01	30.206 
12:10	38.9	34.4	38.9	62	27.0	6	14	112	0.00	30.206 
12:15	38.9	35.2	38.9	60	26.2	5	15	112	0.00	30.206 
12:20	38.9	35.2	38.9	64	27.8	5	11	112	0.00	30.206 
12:25	39.1	35.4	39.1	61	26.8	5	11	112	0.00	30.205 
12:30	38.9	34.4	38.9	64	27.8	6	13	112	0.01	30.202 
12:35	38.9	33.8	38.9	61	26.6	7	13	112	0.00	30.200 
12:40	39.2	35.5	39.2	65	28.4	5	11	112	0.00	30.195 
12:45	39.2	34.2	39.2	61	26.9	7	16	90	0.00	30.191 
12:50	39.3	35.7	39.3	63	27.8	5	11	112	0.00	30.190 
12:55	39.5	36.7	39.5	65	28.7	4	14	112	0.00	30.188 
13:00	39.8	37.1	39.8	64	28.6	4	10	22	0.00	30.180 
13:05	40.1	35.9	40.1	62	28.1	6	12	112	0.01	30.177 
13:10	40.1	35.9	40.1	63	28.5	6	13	112	0.00	30.177 
13:15	39.9	37.2	39.9	65	29.1	4	12	112	0.00	30.176 
13:20	40.1	35.9	40.1	60	27.3	6	15	112	0.00	30.175 
13:25	40.1	35.3	40.1	63	28.5	7	12	112	0.00	30.175 
13:30	40.2	36.7	40.2	63	28.6	5	11	112	0.00	30.170 
13:35	40.3	36.8	40.3	63	28.7	5	13	112	0.00	30.170 
13:40	40.5	36.4	40.5	62	28.5	6	15	112	0.00	30.167 
13:45	40.3	37.7	40.3	62	28.3	4	11	112	0.00	30.167 
13:50	40.3	37.7	40.3	64	29.1	4	11	112	0.00	30.165 
13:55	40.1	35.9	40.1	63	28.5	6	14	112	0.00	30.162 
14:00	40.3	37.7	40.3	61	27.9	4	12	90	0.00	30.159 
14:05	40.6	37.2	40.6	61	28.2	5	12	45	0.00	30.164 
14:10	40.6	37.2	40.6	64	29.4	5	16	112	0.00	30.163 
14:15	40.8	36.1	40.8	62	28.8	7	13	112	0.00	30.164 
14:20	40.8	38.2	40.8	62	28.8	4	12	112	0.00	30.163 
14:25	41.3	38.8	41.3	63	29.7	4	10	112	0.00	30.162 
14:30	41.6	41.6	41.6	59	28.3	3	11	112	0.00	30.163 
14:35	40.8	36.1	40.8	60	28.0	7	16	112	0.00	30.169 
14:40	40.9	37.5	40.9	60	28.1	5	12	112	0.00	30.169 
14:45	41.5	39.1	41.5	60	28.7	4	10	90	0.00	30.170 
14:50	41.3	38.8	41.3	58	27.7	4	11	112	0.00	30.174 
14:55	41.1	37.8	41.1	59	27.9	5	11	112	0.00	30.174 
15:00	41.2	37.9	41.2	60	28.4	5	13	112	0.00	30.177 
15:05	41.6	39.2	41.6	60	28.8	4	9	112	0.00	30.176 
15:10	41.8	41.8	41.8	61	29.4	3	8	90	0.00	30.177 
15:15	41.9	41.9	41.9	62	29.8	3	11	112	0.00	30.178 
15:20	41.9	38.7	41.9	58	28.2	5	11	112	0.00	30.181 
15:25	41.9	38.7	41.9	58	28.2	5	12	112	0.00	30.181 
15:30	42.1	39.7	42.1	58	28.4	4	9	112	0.00	30.181 
15:35	42.1	42.1	42.1	60	29.2	3	7	112	0.00	30.181 
15:40	41.6	39.2	41.6	57	27.5	4	13	112	0.00	30.183 
15:45	41.6	39.2	41.6	57	27.5	4	12	112	0.00	30.185 
15:50	41.8	38.6	41.8	54	26.4	5	10	112	0.00	30.187 
15:55	41.8	39.4	41.8	55	26.8	4	12	112	0.00	30.188 
16:00	41.6	39.2	41.6	55	26.6	4	10	112	0.00	30.183 
16:05	41.6	41.6	41.6	54	26.2	3	7	112	0.00	30.187 
16:10	41.8	39.4	41.8	54	26.4	4	12	90	0.00	30.190 
16:15	41.5	38.2	41.5	57	27.4	5	12	112	0.00	30.187 
16:20	41.6	41.6	41.6	55	26.6	3	7	45	0.00	30.185 
16:25	41.6	39.2	41.6	54	26.2	4	10	90	0.00	30.183 
16:30	41.3	38.0	41.3	55	26.4	5	18	112	0.00	30.181 
16:35	41.3	38.8	41.3	55	26.4	4	11	112	0.00	30.185 
16:40	41.5	41.5	41.5	55	26.6	3	10	90	0.00	30.184 
16:45	41.2	37.9	41.2	54	25.8	5	13	112	0.00	30.181 
16:50	41.1	38.6	41.1	54	25.7	4	13	112	0.00	30.181 
16:55	40.9	37.5	40.9	54	25.6	5	12	112	0.00	30.181 
17:00	40.9	38.4	40.9	56	26.4	4	11	112	0.00	30.181 
17:05	40.9	37.5	40.9	53	25.1	5	12	112	0.00	30.185 
17:10	40.6	40.6	40.6	54	25.3	3	15	45	0.00	30.185 
17:15	40.5	40.5	40.5	55	25.6	3	7	22	0.00	30.184 
17:20	40.5	37.1	40.5	56	26.1	5	14	112	0.00	30.186 
17:25	40.2	36.0	40.2	54	24.9	6	12	112	0.00	30.185 
17:30	40.1	36.6	40.1	55	25.2	5	12	90	0.00	30.190 
17:35	39.8	36.2	39.8	57	25.8	5	11	112	0.00	30.190 
17:40	39.5	35.9	39.5	55	24.7	5	12	112	0.00	30.193 
17:45	39.3	36.5	39.3	56	24.9	4	10	112	0.00	30.195 
17:50	39.1	36.3	39.1	55	24.3	4	12	112	0.00	30.195 
17:55	38.9	36.0	38.9	54	23.7	4	10	112	0.00	30.196 
18:00	38.6	35.7	38.6	53	23.0	4	9	112	0.00	30.196 
18:05	38.5	35.6	38.5	54	23.3	4	11	112	0.00	30.197 
18:10	38.3	34.5	38.3	54	23.1	5	12	112	0.00	30.205 
18:15	38.2	38.2	38.2	57	24.3	2	10	90	0.00	30.210 
18:20	38.0	38.0	38.0	60	25.4	2	7	112	0.00	30.212 
18:25	37.9	34.9	37.9	61	25.7	4	11	90	0.00	30.213 
18:30	37.6	37.6	37.6	60	25.0	3	7	45	0.00	30.215 
18:35	37.5	37.5	37.5	61	25.3	3	10	112	0.00	30.216 
18:40	37.2	37.2	37.2	63	25.8	2	6	68	0.00	30.226 
18:45	37.0	37.0	37.0	62	25.2	2	4	45	0.00	30.227 
18:50	36.9	36.9	36.9	63	25.5	2	7	112	0.00	30.228 
18:55	36.6	36.6	36.6	63	25.2	1	6	135	0.00	30.229 
19:00	36.6	36.6	36.6	63	25.2	2	7	45	0.00	30.228 
19:05	36.5	36.5	36.5	62	24.7	3	7	112	0.00	30.227 
19:10	36.5	36.5	36.5	63	25.1	2	7	112	0.00	30.226 
19:15	36.5	36.5	36.5	63	25.1	1	4	90	0.00	30.228 
19:20	36.3	36.3	36.3	63	24.9	2	6	90	0.00	30.230 
19:25	36.2	36.2	36.2	64	25.2	2	6	90	0.00	30.223 
19:30	36.0	36.0	36.0	65	25.4	2	5	135	0.00	30.222 
19:35	36.0	36.0	36.0	64	25.0	3	6	68	0.00	30.225 
19:40	36.0	36.0	36.0	64	25.0	2	6	45	0.00	30.220 
19:45	35.9	35.9	35.9	64	24.9	2	7	112	0.00	30.220 
19:50	35.9	35.9	35.9	65	25.3	2	6	45	0.00	30.223 
19:55	35.9	35.9	35.9	65	25.3	2	7	45	0.00	30.220 
20:00	35.9	35.9	35.9	65	25.3	3	6	112	0.00	30.223 
20:05	35.8	35.8	35.8	65	25.2	2	5	22	0.00	30.223 
20:10	35.8	35.8	35.8	65	25.2	3	5	112	0.00	30.226 
20:15	35.8	35.8	35.8	65	25.2	3	10	90	0.00	30.217 
20:20	35.6	35.6	35.6	65	25.0	3	10	45	0.00	30.213 
20:25	35.5	35.5	35.5	65	24.9	3	10	112	0.00	30.213 
20:30	35.3	31.0	35.3	62	23.6	5	12	112	0.00	30.216 
20:35	35.2	31.8	35.2	65	24.6	4	11	112	0.00	30.218 
20:40	34.9	31.4	34.9	65	24.3	4	13	112	0.00	30.218 
20:45	34.7	31.2	34.7	65	24.2	4	10	112	0.00	30.219 
20:50	34.6	31.1	34.6	66	24.4	4	12	112	0.00	30.215 
20:55	34.4	34.4	34.4	67	24.6	3	15	112	0.00	30.216 
21:00	34.3	30.7	34.3	66	24.1	4	12	112	0.00	30.218 
21:05	34.1	34.1	34.1	65	23.6	3	12	112	0.00	30.228 
21:10	34.0	30.4	34.0	64	23.1	4	10	90	0.00	30.229 
21:15	33.7	33.7	33.7	64	22.8	3	11	90	0.00	30.227 
21:20	33.5	29.8	33.5	62	21.9	4	11	112	0.00	30.228 
21:25	33.2	29.5	33.2	61	21.2	4	11	112	0.00	30.229 
21:30	33.1	33.1	33.1	61	21.1	3	12	112	0.00	30.229 
21:35	32.9	32.9	32.9	61	20.9	3	9	90	0.00	30.228 
21:40	32.8	29.0	32.8	61	20.9	4	10	112	0.00	30.226 
21:45	32.7	28.9	32.7	62	21.1	4	11	112	0.00	30.224 
21:50	32.4	32.4	32.4	61	20.5	3	11	112	0.00	30.224 
21:55	32.2	27.3	32.2	60	19.9	5	14	112	0.00	30.230 
22:00	32.2	27.3	32.2	61	20.3	5	13	112	0.00	30.230 
22:05	31.9	27.0	31.9	62	20.4	5	11	112	0.00	30.229 
22:10	31.8	27.8	31.8	63	20.7	4	9	112	0.00	30.229 
22:15	31.6	27.6	31.6	65	21.2	4	11	112	0.00	30.227 
22:20	31.3	26.3	31.3	65	20.9	5	11	112	0.00	30.230 
22:25	31.2	27.2	31.2	65	20.8	4	11	112	0.00	30.231 
22:30	31.0	26.9	31.0	63	19.9	4	12	112	0.00	30.231 
22:35	30.7	25.5	30.7	59	18.1	5	14	112	0.00	30.231 
22:40	30.7	30.7	30.7	61	18.9	3	13	90	0.00	30.231 
22:45	30.6	30.6	30.6	62	19.2	3	13	112	0.00	30.232 
22:50	30.3	24.2	30.3	58	17.3	6	16	112	0.00	30.232 
22:55	30.1	30.1	30.1	61	18.3	3	11	112	0.00	30.230 
23:00	30.0	25.8	30.0	62	18.6	4	12	112	0.00	30.224 
23:05	29.8	29.8	29.8	62	18.4	3	9	112	0.00	30.226 
23:10	29.7	29.7	29.7	63	18.7	3	7	22	0.00	30.227 
23:15	29.5	25.2	29.5	64	18.8	4	12	45	0.00	30.221 
23:20	29.5	29.5	29.5	65	19.2	2	7	45	0.00	30.223 
23:25	29.4	29.4	29.4	67	19.8	2	6	90	0.00	30.223 
23:30	29.3	29.3	29.3	67	19.7	2	7	112	0.00	30.219 
23:35	29.3	29.3	29.3	68	20.1	3	10	112	0.00	30.216 
23:40	29.0	24.6	29.0	67	19.4	4	11	112	0.00	30.214 
23:45	28.8	22.4	28.8	67	19.2	6	14	112	0.00	30.213 
23:50	28.7	28.7	28.7	67	19.2	3	12	135	0.00	30.212 
23:55	28.5	24.0	28.5	66	18.6	4	11	112	0.00	30.210 

CoCoRaHS
IN-AL-39
A2 Web Hosting
Creative Commons License
GoDaddy
Look for:

loaded 2017-12-13 02:41:31 • last modified 2010-11-18 10:43:29
Privacy PolicyDisclaimer
• wx.awcolley.com is powered by PmWiki v.2002016 •
• all content (unless otherwise noted) © 2017 A W Colley